TimeCDT,TemperatureF,Dew PointF,Humidity,Sea Level PressureIn,VisibilityMPH,Wind Direction,Wind SpeedMPH,Gust SpeedMPH,PrecipitationIn,Events,Conditions,WindDirDegrees,DateUTC
12:15 AM,68.0,48.7,50,29.91,10.0,NNW,15.0,-,N/A,,Clear,340,2012-09-07 05:15:00
12:35 AM,67.6,49.1,51,29.92,10.0,NNW,17.3,-,N/A,,Clear,340,2012-09-07 05:35:00
12:55 AM,67.1,49.6,53,29.93,10.0,NNW,19.6,25.3,N/A,,Clear,340,2012-09-07 05:55:00
1:15 AM,66.2,50.2,56,29.93,10.0,NNW,19.6,23.0,N/A,,Clear,340,2012-09-07 06:15:00
1:35 AM,65.7,50.4,58,29.96,10.0,NNW,19.6,23.0,N/A,,Clear,340,2012-09-07 06:35:00
1:55 AM,65.3,50.4,58,29.97,10.0,NNW,21.9,-,N/A,,Clear,340,2012-09-07 06:55:00
2:15 AM,64.6,50.4,60,29.97,10.0,North,13.8,23.0,N/A,,Clear,350,2012-09-07 07:15:00
2:35 AM,63.7,50.0,61,29.98,10.0,North,16.1,21.9,N/A,,Clear,350,2012-09-07 07:35:00
2:55 AM,63.1,50.0,62,30.00,10.0,NNW,17.3,23.0,N/A,,Clear,340,2012-09-07 07:55:00
3:15 AM,62.2,50.0,64,30.00,10.0,North,15.0,24.2,N/A,,Clear,350,2012-09-07 08:15:00
3:35 AM,61.7,50.0,65,30.00,10.0,North,18.4,23.0,N/A,,Clear,350,2012-09-07 08:35:00
3:55 AM,61.0,50.0,67,30.02,10.0,NNW,15.0,-,N/A,,Clear,340,2012-09-07 08:55:00
4:15 AM,61.3,49.6,65,30.01,10.0,North,16.1,20.7,N/A,,Clear,350,2012-09-07 09:15:00
4:35 AM,61.3,49.1,64,30.03,10.0,North,15.0,20.7,N/A,,Clear,350,2012-09-07 09:35:00
4:55 AM,61.3,49.1,64,30.04,10.0,North,13.8,20.7,N/A,,Clear,350,2012-09-07 09:55:00
5:15 AM,61.2,49.1,65,30.06,10.0,NNW,16.1,-,N/A,,Clear,340,2012-09-07 10:15:00
5:35 AM,61.0,48.6,64,30.09,10.0,NNW,10.4,18.4,N/A,,Scattered Clouds,330,2012-09-07 10:35:00
5:55 AM,60.8,48.4,64,30.09,10.0,NNW,12.7,-,N/A,,Scattered Clouds,340,2012-09-07 10:55:00
6:15 AM,60.3,49.1,67,30.12,10.0,WNW,8.1,-,N/A,Rain,Light Rain,300,2012-09-07 11:15:00
6:35 AM,59.5,49.6,70,30.12,10.0,NNW,5.8,-,N/A,,Mostly Cloudy,330,2012-09-07 11:35:00
6:55 AM,58.5,50.4,74,30.11,10.0,NNW,11.5,-,N/A,,Light Drizzle,330,2012-09-07 11:55:00
7:15 AM,57.6,50.9,78,30.08,10.0,North,12.7,-,N/A,,Mostly Cloudy,350,2012-09-07 12:15:00
7:35 AM,57.2,51.3,81,30.10,10.0,NNW,12.7,17.3,N/A,Rain,Light Rain,340,2012-09-07 12:35:00
7:55 AM,56.3,52.0,85,30.10,10.0,NNW,15.0,-,N/A,Rain,Light Rain,340,2012-09-07 12:55:00
8:15 AM,56.5,51.8,84,30.10,10.0,NNW,13.8,-,N/A,,Mostly Cloudy,330,2012-09-07 13:15:00
8:35 AM,57.2,52.0,83,30.11,10.0,NNW,11.5,-,N/A,,Scattered Clouds,330,2012-09-07 13:35:00
8:55 AM,57.2,51.8,82,30.11,10.0,NNW,13.8,-,N/A,,Clear,330,2012-09-07 13:55:00
9:15 AM,57.9,52.2,81,30.12,10.0,NNW,12.7,18.4,N/A,,Clear,330,2012-09-07 14:15:00
9:35 AM,58.8,52.2,79,30.13,10.0,NNW,11.5,-,N/A,,Clear,340,2012-09-07 14:35:00
9:55 AM,59.7,51.8,75,30.12,10.0,North,13.8,-,N/A,,Clear,360,2012-09-07 14:55:00
10:15 AM,60.3,51.8,74,30.14,10.0,North,12.7,17.3,N/A,,Clear,350,2012-09-07 15:15:00
10:35 AM,60.3,51.4,73,30.14,10.0,North,11.5,19.6,N/A,,Clear,360,2012-09-07 15:35:00
10:55 AM,61.3,51.8,71,30.15,10.0,North,12.7,18.4,N/A,,Clear,350,2012-09-07 15:55:00
11:15 AM,63.5,51.4,65,30.15,10.0,North,16.1,23.0,N/A,,Clear,360,2012-09-07 16:15:00
11:35 AM,63.7,51.3,64,30.16,10.0,North,15.0,18.4,N/A,,Clear,360,2012-09-07 16:35:00
11:55 AM,64.0,50.7,62,30.16,10.0,North,12.7,18.4,N/A,,Scattered Clouds,360,2012-09-07 16:55:00
12:15 PM,65.8,49.6,56,30.16,10.0,North,13.8,18.4,N/A,,Scattered Clouds,10,2012-09-07 17:15:00
12:35 PM,66.9,47.1,49,30.15,10.0,North,19.6,25.3,N/A,,Clear,350,2012-09-07 17:35:00
12:55 PM,69.3,46.2,44,30.15,10.0,North,17.3,24.2,N/A,,Scattered Clouds,360,2012-09-07 17:55:00
1:15 PM,69.6,44.4,40,30.15,10.0,NNW,18.4,26.5,N/A,,Scattered Clouds,340,2012-09-07 18:15:00
1:35 PM,69.4,44.4,41,30.15,10.0,NNW,17.3,25.3,N/A,,Scattered Clouds,330,2012-09-07 18:35:00
1:55 PM,69.6,45.7,42,30.15,10.0,NNW,19.6,25.3,N/A,,Scattered Clouds,340,2012-09-07 18:55:00
2:15 PM,70.2,40.8,34,30.15,10.0,North,13.8,24.2,N/A,,Scattered Clouds,350,2012-09-07 19:15:00
2:35 PM,72.1,42.8,35,30.15,10.0,NNW,18.4,24.2,N/A,,Scattered Clouds,330,2012-09-07 19:35:00
2:55 PM,71.6,41.4,33,30.15,10.0,NNW,21.9,27.6,N/A,,Scattered Clouds,330,2012-09-07 19:55:00
3:15 PM,71.2,41.9,35,30.15,10.0,North,16.1,21.9,N/A,,Scattered Clouds,350,2012-09-07 20:15:00
3:35 PM,72.7,42.3,33,30.14,10.0,North,17.3,26.5,N/A,,Mostly Cloudy,350,2012-09-07 20:35:00
3:55 PM,72.5,41.2,32,30.14,10.0,North,12.7,25.3,N/A,,Scattered Clouds,360,2012-09-07 20:55:00
4:15 PM,71.6,41.0,33,30.14,10.0,North,11.5,24.2,N/A,,Scattered Clouds,10,2012-09-07 21:15:00
4:35 PM,72.7,40.6,31,30.14,10.0,North,20.7,26.5,N/A,,Scattered Clouds,350,2012-09-07 21:35:00
4:55 PM,72.9,40.5,31,30.14,10.0,North,12.7,23.0,N/A,,Clear,360,2012-09-07 21:55:00
5:15 PM,73.2,40.3,30,30.14,10.0,NW,16.1,20.7,N/A,,Clear,320,2012-09-07 22:15:00
5:35 PM,72.3,39.9,31,30.14,10.0,NW,16.1,24.2,N/A,,Clear,320,2012-09-07 22:35:00
5:55 PM,72.5,40.3,31,30.14,10.0,NNW,18.4,24.2,N/A,,Clear,340,2012-09-07 22:55:00
6:15 PM,71.4,39.7,32,30.14,10.0,NNW,15.0,21.9,N/A,,Clear,340,2012-09-07 23:15:00
6:35 PM,70.7,39.6,32,30.14,10.0,North,12.7,23.0,N/A,,Clear,350,2012-09-07 23:35:00
6:55 PM,69.8,39.2,33,30.15,10.0,NNW,13.8,17.3,N/A,,Clear,340,2012-09-07 23:55:00
7:15 PM,68.5,39.0,34,30.15,10.0,North,11.5,-,N/A,,Clear,350,2012-09-08 00:15:00
7:35 PM,66.9,38.5,35,30.15,10.0,North,10.4,-,N/A,,Clear,350,2012-09-08 00:35:00
7:55 PM,64.6,39.0,39,30.15,10.0,North,9.2,-,N/A,,Clear,350,2012-09-08 00:55:00
8:15 PM,61.0,40.1,46,30.16,10.0,North,6.9,-,N/A,,Clear,350,2012-09-08 01:15:00
8:35 PM,58.5,41.5,53,30.16,10.0,North,6.9,-,N/A,,Clear,350,2012-09-08 01:35:00
8:55 PM,55.6,42.6,62,30.17,10.0,NNW,8.1,-,N/A,,Clear,330,2012-09-08 01:55:00
9:15 PM,55.2,42.1,61,30.18,10.0,NNW,5.8,-,N/A,,Clear,330,2012-09-08 02:15:00
9:35 PM,54.7,42.1,62,30.18,10.0,NNW,6.9,-,N/A,,Clear,340,2012-09-08 02:35:00
9:55 PM,53.2,41.9,65,30.18,10.0,NNW,6.9,-,N/A,,Clear,340,2012-09-08 02:55:00
10:55 PM,51.3,41.9,70,30.19,10.0,NNW,5.8,-,N/A,,Clear,340,2012-09-08 03:55:00
11:15 PM,51.6,42.8,72,30.20,10.0,NW,4.6,-,N/A,,Clear,310,2012-09-08 04:15:00
11:35 PM,51.6,41.7,69,30.21,10.0,NW,5.8,-,N/A,,Clear,310,2012-09-08 04:35:00
11:55 PM,52.3,41.9,68,30.21,10.0,NW,5.8,-,N/A,,Clear,310,2012-09-08 04:55:00